<?xml version="1.0" encoding="UTF-8" standalone="no" ?>
<gpx xmlns="http://www.topografix.com/GPX/1/1" xmlns:xsi="http://www.w3.org/2001/XMLSchema-instance" xsi:schemaLocation="http://www.topografix.com/GPX/1/1 http://www.topografix.com/GPX/1/1/gpx.xsd" version="1.1" creator="VisuGPX - https://www.visugpx.com">
  <metadata>
    <name>Walk from Mignaval around valley</name>
    <desc><![CDATA[A ramble along tracks and paths around the valley.]]></desc>
  </metadata>
  <trk>
    <name><![CDATA[2014-07-13 11:26:05]]></name>
    <trkseg>
      <trkpt lat="45.54271" lon="3.80334">
        <ele>895.16</ele>
        <time>2014-07-13T08:36:18Z</time>
      </trkpt>
      <trkpt lat="45.5427" lon="3.80328">
        <ele>895.16</ele>
        <time>2014-07-13T08:36:19Z</time>
      </trkpt>
      <trkpt lat="45.5427" lon="3.80321">
        <ele>871.92</ele>
        <time>2014-07-13T08:36:24Z</time>
      </trkpt>
      <trkpt lat="45.54267" lon="3.80326">
        <ele>871.92</ele>
        <time>2014-07-13T08:36:25Z</time>
      </trkpt>
      <trkpt lat="45.54275" lon="3.803">
        <ele>871.74</ele>
        <time>2014-07-13T08:36:38Z</time>
      </trkpt>
      <trkpt lat="45.54287" lon="3.80279">
        <ele>873.44</ele>
        <time>2014-07-13T08:36:54Z</time>
      </trkpt>
      <trkpt lat="45.54299" lon="3.80254">
        <ele>873.42</ele>
        <time>2014-07-13T08:37:17Z</time>
      </trkpt>
      <trkpt lat="45.54304" lon="3.80247">
        <ele>872.78</ele>
        <time>2014-07-13T08:37:38Z</time>
      </trkpt>
      <trkpt lat="45.54311" lon="3.80252">
        <ele>873.37</ele>
        <time>2014-07-13T08:37:53Z</time>
      </trkpt>
      <trkpt lat="45.5432" lon="3.80261">
        <ele>875.73</ele>
        <time>2014-07-13T08:38:08Z</time>
      </trkpt>
      <trkpt lat="45.54321" lon="3.80265">
        <ele>877.3</ele>
        <time>2014-07-13T08:38:29Z</time>
      </trkpt>
      <trkpt lat="45.54322" lon="3.80265">
        <ele>876.92</ele>
        <time>2014-07-13T08:38:40Z</time>
      </trkpt>
      <trkpt lat="45.54443" lon="3.80142">
        <ele>888.93</ele>
        <time>2014-07-13T08:42:27Z</time>
      </trkpt>
      <trkpt lat="45.54452" lon="3.80138">
        <ele>889.85</ele>
        <time>2014-07-13T08:42:42Z</time>
      </trkpt>
      <trkpt lat="45.54458" lon="3.80131">
        <ele>890.53</ele>
        <time>2014-07-13T08:42:53Z</time>
      </trkpt>
      <trkpt lat="45.5446" lon="3.80122">
        <ele>891.7</ele>
        <time>2014-07-13T08:43:06Z</time>
      </trkpt>
      <trkpt lat="45.5447" lon="3.80098">
        <ele>893.16</ele>
        <time>2014-07-13T08:43:26Z</time>
      </trkpt>
      <trkpt lat="45.54474" lon="3.80089">
        <ele>893.61</ele>
        <time>2014-07-13T08:43:31Z</time>
      </trkpt>
      <trkpt lat="45.54479" lon="3.80078">
        <ele>894.51</ele>
        <time>2014-07-13T08:43:44Z</time>
      </trkpt>
      <trkpt lat="45.54481" lon="3.80071">
        <ele>894.9</ele>
        <time>2014-07-13T08:43:49Z</time>
      </trkpt>
      <trkpt lat="45.54487" lon="3.80059">
        <ele>896.67</ele>
        <time>2014-07-13T08:44:04Z</time>
      </trkpt>
      <trkpt lat="45.54494" lon="3.80054">
        <ele>897.34</ele>
        <time>2014-07-13T08:44:15Z</time>
      </trkpt>
      <trkpt lat="45.54503" lon="3.80043">
        <ele>899.08</ele>
        <time>2014-07-13T08:44:32Z</time>
      </trkpt>
      <trkpt lat="45.54507" lon="3.80033">
        <ele>900.3</ele>
        <time>2014-07-13T08:44:45Z</time>
      </trkpt>
      <trkpt lat="45.54507" lon="3.80031">
        <ele>900.51</ele>
        <time>2014-07-13T08:44:48Z</time>
      </trkpt>
      <trkpt lat="45.54513" lon="3.80017">
        <ele>901.8</ele>
        <time>2014-07-13T08:45:05Z</time>
      </trkpt>
      <trkpt lat="45.54514" lon="3.80011">
        <ele>901.96</ele>
        <time>2014-07-13T08:45:09Z</time>
      </trkpt>
      <trkpt lat="45.54515" lon="3.79997">
        <ele>902.92</ele>
        <time>2014-07-13T08:45:33Z</time>
      </trkpt>
      <trkpt lat="45.54509" lon="3.79974">
        <ele>903.53</ele>
        <time>2014-07-13T08:45:57Z</time>
      </trkpt>
      <trkpt lat="45.54512" lon="3.79952">
        <ele>904.88</ele>
        <time>2014-07-13T08:46:15Z</time>
      </trkpt>
      <trkpt lat="45.54513" lon="3.79938">
        <ele>906.4</ele>
        <time>2014-07-13T08:46:26Z</time>
      </trkpt>
      <trkpt lat="45.54513" lon="3.79934">
        <ele>906.41</ele>
        <time>2014-07-13T08:46:36Z</time>
      </trkpt>
      <trkpt lat="45.54515" lon="3.79922">
        <ele>906.43</ele>
        <time>2014-07-13T08:46:53Z</time>
      </trkpt>
      <trkpt lat="45.54518" lon="3.79912">
        <ele>906.98</ele>
        <time>2014-07-13T08:47:02Z</time>
      </trkpt>
      <trkpt lat="45.54521" lon="3.79899">
        <ele>908.69</ele>
        <time>2014-07-13T08:47:18Z</time>
      </trkpt>
      <trkpt lat="45.54521" lon="3.79884">
        <ele>909.96</ele>
        <time>2014-07-13T08:47:31Z</time>
      </trkpt>
      <trkpt lat="45.54524" lon="3.79866">
        <ele>910.42</ele>
        <time>2014-07-13T08:48:00Z</time>
      </trkpt>
      <trkpt lat="45.54527" lon="3.79857">
        <ele>911.55</ele>
        <time>2014-07-13T08:48:08Z</time>
      </trkpt>
      <trkpt lat="45.54527" lon="3.79841">
        <ele>912.02</ele>
        <time>2014-07-13T08:48:21Z</time>
      </trkpt>
      <trkpt lat="45.54528" lon="3.7984">
        <ele>912.17</ele>
        <time>2014-07-13T08:48:23Z</time>
      </trkpt>
      <trkpt lat="45.54534" lon="3.79821">
        <ele>913.2</ele>
        <time>2014-07-13T08:48:38Z</time>
      </trkpt>
      <trkpt lat="45.54541" lon="3.79803">
        <ele>914.29</ele>
        <time>2014-07-13T08:48:56Z</time>
      </trkpt>
      <trkpt lat="45.54545" lon="3.79774">
        <ele>915.24</ele>
        <time>2014-07-13T08:49:16Z</time>
      </trkpt>
      <trkpt lat="45.54549" lon="3.79761">
        <ele>915.76</ele>
        <time>2014-07-13T08:49:31Z</time>
      </trkpt>
      <trkpt lat="45.5456" lon="3.79745">
        <ele>916.39</ele>
        <time>2014-07-13T08:49:49Z</time>
      </trkpt>
      <trkpt lat="45.54572" lon="3.79734">
        <ele>916.71</ele>
        <time>2014-07-13T08:50:02Z</time>
      </trkpt>
      <trkpt lat="45.54582" lon="3.79726">
        <ele>917.18</ele>
        <time>2014-07-13T08:50:15Z</time>
      </trkpt>
      <trkpt lat="45.54592" lon="3.7972">
        <ele>917.54</ele>
        <time>2014-07-13T08:50:36Z</time>
      </trkpt>
      <trkpt lat="45.5459" lon="3.79722">
        <ele>917.36</ele>
        <time>2014-07-13T08:50:52Z</time>
      </trkpt>
      <trkpt lat="45.54782" lon="3.79521">
        <ele>909.87</ele>
        <time>2014-07-13T08:55:54Z</time>
      </trkpt>
      <trkpt lat="45.54796" lon="3.79512">
        <ele>909.98</ele>
        <time>2014-07-13T08:56:11Z</time>
      </trkpt>
      <trkpt lat="45.54805" lon="3.79507">
        <ele>909.61</ele>
        <time>2014-07-13T08:56:23Z</time>
      </trkpt>
      <trkpt lat="45.54816" lon="3.79502">
        <ele>909.41</ele>
        <time>2014-07-13T08:56:35Z</time>
      </trkpt>
      <trkpt lat="45.54829" lon="3.79502">
        <ele>908.96</ele>
        <time>2014-07-13T08:56:53Z</time>
      </trkpt>
      <trkpt lat="45.54837" lon="3.79502">
        <ele>908.66</ele>
        <time>2014-07-13T08:57:03Z</time>
      </trkpt>
      <trkpt lat="45.54848" lon="3.79503">
        <ele>908.39</ele>
        <time>2014-07-13T08:57:17Z</time>
      </trkpt>
      <trkpt lat="45.54852" lon="3.79505">
        <ele>908.41</ele>
        <time>2014-07-13T08:57:21Z</time>
      </trkpt>
      <trkpt lat="45.54861" lon="3.79512">
        <ele>908.57</ele>
        <time>2014-07-13T08:57:32Z</time>
      </trkpt>
      <trkpt lat="45.54866" lon="3.79513">
        <ele>908.69</ele>
        <time>2014-07-13T08:57:38Z</time>
      </trkpt>
      <trkpt lat="45.54878" lon="3.79513">
        <ele>908.74</ele>
        <time>2014-07-13T08:57:51Z</time>
      </trkpt>
      <trkpt lat="45.54887" lon="3.79515">
        <ele>908.44</ele>
        <time>2014-07-13T08:58:00Z</time>
      </trkpt>
      <trkpt lat="45.54889" lon="3.79516">
        <ele>908.29</ele>
        <time>2014-07-13T08:58:03Z</time>
      </trkpt>
      <trkpt lat="45.54892" lon="3.79517">
        <ele>908.18</ele>
        <time>2014-07-13T08:58:05Z</time>
      </trkpt>
      <trkpt lat="45.54919" lon="3.7953">
        <ele>908.28</ele>
        <time>2014-07-13T08:58:31Z</time>
      </trkpt>
      <trkpt lat="45.54922" lon="3.7953">
        <ele>908.24</ele>
        <time>2014-07-13T08:58:34Z</time>
      </trkpt>
      <trkpt lat="45.54936" lon="3.79526">
        <ele>907.18</ele>
        <time>2014-07-13T08:58:53Z</time>
      </trkpt>
      <trkpt lat="45.54944" lon="3.79511">
        <ele>904.1</ele>
        <time>2014-07-13T08:59:14Z</time>
      </trkpt>
      <trkpt lat="45.54951" lon="3.79505">
        <ele>903.01</ele>
        <time>2014-07-13T08:59:22Z</time>
      </trkpt>
      <trkpt lat="45.54959" lon="3.79495">
        <ele>901.42</ele>
        <time>2014-07-13T08:59:35Z</time>
      </trkpt>
      <trkpt lat="45.54962" lon="3.79491">
        <ele>899.4</ele>
        <time>2014-07-13T08:59:48Z</time>
      </trkpt>
      <trkpt lat="45.54964" lon="3.79488">
        <ele>899.01</ele>
        <time>2014-07-13T08:59:52Z</time>
      </trkpt>
      <trkpt lat="45.54965" lon="3.79486">
        <ele>898.47</ele>
        <time>2014-07-13T08:59:56Z</time>
      </trkpt>
      <trkpt lat="45.54978" lon="3.79473">
        <ele>895.97</ele>
        <time>2014-07-13T09:00:15Z</time>
      </trkpt>
      <trkpt lat="45.54986" lon="3.79459">
        <ele>894.16</ele>
        <time>2014-07-13T09:00:29Z</time>
      </trkpt>
      <trkpt lat="45.54997" lon="3.79455">
        <ele>892.42</ele>
        <time>2014-07-13T09:00:44Z</time>
      </trkpt>
      <trkpt lat="45.55006" lon="3.79452">
        <ele>891.17</ele>
        <time>2014-07-13T09:00:56Z</time>
      </trkpt>
      <trkpt lat="45.55009" lon="3.79451">
        <ele>890.9</ele>
        <time>2014-07-13T09:00:59Z</time>
      </trkpt>
      <trkpt lat="45.55022" lon="3.79447">
        <ele>889.02</ele>
        <time>2014-07-13T09:01:14Z</time>
      </trkpt>
      <trkpt lat="45.55026" lon="3.79446">
        <ele>888.13</ele>
        <time>2014-07-13T09:01:18Z</time>
      </trkpt>
      <trkpt lat="45.55029" lon="3.79444">
        <ele>887.32</ele>
        <time>2014-07-13T09:01:23Z</time>
      </trkpt>
      <trkpt lat="45.55042" lon="3.79439">
        <ele>884.65</ele>
        <time>2014-07-13T09:01:43Z</time>
      </trkpt>
      <trkpt lat="45.55057" lon="3.7944">
        <ele>882.48</ele>
        <time>2014-07-13T09:01:58Z</time>
      </trkpt>
      <trkpt lat="45.55064" lon="3.79439">
        <ele>881.76</ele>
        <time>2014-07-13T09:02:05Z</time>
      </trkpt>
      <trkpt lat="45.55073" lon="3.79431">
        <ele>880.87</ele>
        <time>2014-07-13T09:02:12Z</time>
      </trkpt>
      <trkpt lat="45.55078" lon="3.79415">
        <ele>878.63</ele>
        <time>2014-07-13T09:02:31Z</time>
      </trkpt>
      <trkpt lat="45.55076" lon="3.79396">
        <ele>877.44</ele>
        <time>2014-07-13T09:02:50Z</time>
      </trkpt>
      <trkpt lat="45.55073" lon="3.79367">
        <ele>875.34</ele>
        <time>2014-07-13T09:03:12Z</time>
      </trkpt>
      <trkpt lat="45.55072" lon="3.79346">
        <ele>873.18</ele>
        <time>2014-07-13T09:03:28Z</time>
      </trkpt>
      <trkpt lat="45.55076" lon="3.79332">
        <ele>871.2</ele>
        <time>2014-07-13T09:03:46Z</time>
      </trkpt>
      <trkpt lat="45.55078" lon="3.79325">
        <ele>871.14</ele>
        <time>2014-07-13T09:04:10Z</time>
      </trkpt>
      <trkpt lat="45.55063" lon="3.79324">
        <ele>869.23</ele>
        <time>2014-07-13T09:06:38Z</time>
      </trkpt>
      <trkpt lat="45.55046" lon="3.79313">
        <ele>867.94</ele>
        <time>2014-07-13T09:06:56Z</time>
      </trkpt>
      <trkpt lat="45.55023" lon="3.7929">
        <ele>865.38</ele>
        <time>2014-07-13T09:07:16Z</time>
      </trkpt>
      <trkpt lat="45.55019" lon="3.79289">
        <ele>864.47</ele>
        <time>2014-07-13T09:07:33Z</time>
      </trkpt>
      <trkpt lat="45.55017" lon="3.79289">
        <ele>864.41</ele>
        <time>2014-07-13T09:07:54Z</time>
      </trkpt>
      <trkpt lat="45.55016" lon="3.7929">
        <ele>864.22</ele>
        <time>2014-07-13T09:08:06Z</time>
      </trkpt>
      <trkpt lat="45.55008" lon="3.79263">
        <ele>862.19</ele>
        <time>2014-07-13T09:09:05Z</time>
      </trkpt>
      <trkpt lat="45.55003" lon="3.79259">
        <ele>861.85</ele>
        <time>2014-07-13T09:09:09Z</time>
      </trkpt>
      <trkpt lat="45.54991" lon="3.79239">
        <ele>860.37</ele>
        <time>2014-07-13T09:09:25Z</time>
      </trkpt>
      <trkpt lat="45.5499" lon="3.79237">
        <ele>860.2</ele>
        <time>2014-07-13T09:09:27Z</time>
      </trkpt>
      <trkpt lat="45.54981" lon="3.79224">
        <ele>859.31</ele>
        <time>2014-07-13T09:09:41Z</time>
      </trkpt>
      <trkpt lat="45.5497" lon="3.79207">
        <ele>858.04</ele>
        <time>2014-07-13T09:09:58Z</time>
      </trkpt>
      <trkpt lat="45.5496" lon="3.7919">
        <ele>857.27</ele>
        <time>2014-07-13T09:10:13Z</time>
      </trkpt>
      <trkpt lat="45.54954" lon="3.79185">
        <ele>856.43</ele>
        <time>2014-07-13T09:10:30Z</time>
      </trkpt>
      <trkpt lat="45.54944" lon="3.79165">
        <ele>855.66</ele>
        <time>2014-07-13T09:10:49Z</time>
      </trkpt>
      <trkpt lat="45.54938" lon="3.79148">
        <ele>854.5</ele>
        <time>2014-07-13T09:11:03Z</time>
      </trkpt>
      <trkpt lat="45.54931" lon="3.79131">
        <ele>853.91</ele>
        <time>2014-07-13T09:11:18Z</time>
      </trkpt>
      <trkpt lat="45.54925" lon="3.79111">
        <ele>852.82</ele>
        <time>2014-07-13T09:11:38Z</time>
      </trkpt>
      <trkpt lat="45.54921" lon="3.79091">
        <ele>851.76</ele>
        <time>2014-07-13T09:11:59Z</time>
      </trkpt>
      <trkpt lat="45.54914" lon="3.79059">
        <ele>850.45</ele>
        <time>2014-07-13T09:12:23Z</time>
      </trkpt>
      <trkpt lat="45.5491" lon="3.79037">
        <ele>849.65</ele>
        <time>2014-07-13T09:12:39Z</time>
      </trkpt>
      <trkpt lat="45.54908" lon="3.79018">
        <ele>849.1</ele>
        <time>2014-07-13T09:12:53Z</time>
      </trkpt>
      <trkpt lat="45.54905" lon="3.79005">
        <ele>848.24</ele>
        <time>2014-07-13T09:13:12Z</time>
      </trkpt>
      <trkpt lat="45.54905" lon="3.79002">
        <ele>848.15</ele>
        <time>2014-07-13T09:13:32Z</time>
      </trkpt>
      <trkpt lat="45.54908" lon="3.78997">
        <ele>848.16</ele>
        <time>2014-07-13T09:13:37Z</time>
      </trkpt>
      <trkpt lat="45.54917" lon="3.78975">
        <ele>847.47</ele>
        <time>2014-07-13T09:13:53Z</time>
      </trkpt>
      <trkpt lat="45.54926" lon="3.78954">
        <ele>846.2</ele>
        <time>2014-07-13T09:14:09Z</time>
      </trkpt>
      <trkpt lat="45.54935" lon="3.78933">
        <ele>845.24</ele>
        <time>2014-07-13T09:14:25Z</time>
      </trkpt>
      <trkpt lat="45.54946" lon="3.78909">
        <ele>843.92</ele>
        <time>2014-07-13T09:14:42Z</time>
      </trkpt>
      <trkpt lat="45.54956" lon="3.78889">
        <ele>842.87</ele>
        <time>2014-07-13T09:14:59Z</time>
      </trkpt>
      <trkpt lat="45.54967" lon="3.78863">
        <ele>841.71</ele>
        <time>2014-07-13T09:15:19Z</time>
      </trkpt>
      <trkpt lat="45.54973" lon="3.7885">
        <ele>841.14</ele>
        <time>2014-07-13T09:15:29Z</time>
      </trkpt>
      <trkpt lat="45.54976" lon="3.78848">
        <ele>840.95</ele>
        <time>2014-07-13T09:15:32Z</time>
      </trkpt>
      <trkpt lat="45.54978" lon="3.78843">
        <ele>840.72</ele>
        <time>2014-07-13T09:15:36Z</time>
      </trkpt>
      <trkpt lat="45.54992" lon="3.78826">
        <ele>840.15</ele>
        <time>2014-07-13T09:15:53Z</time>
      </trkpt>
      <trkpt lat="45.54995" lon="3.78823">
        <ele>839.9</ele>
        <time>2014-07-13T09:16:08Z</time>
      </trkpt>
      <trkpt lat="45.55004" lon="3.78805">
        <ele>839.86</ele>
        <time>2014-07-13T09:16:31Z</time>
      </trkpt>
      <trkpt lat="45.55006" lon="3.78799">
        <ele>840.2</ele>
        <time>2014-07-13T09:16:37Z</time>
      </trkpt>
      <trkpt lat="45.55009" lon="3.78784">
        <ele>840.68</ele>
        <time>2014-07-13T09:16:50Z</time>
      </trkpt>
      <trkpt lat="45.55007" lon="3.78758">
        <ele>841.65</ele>
        <time>2014-07-13T09:17:08Z</time>
      </trkpt>
      <trkpt lat="45.55013" lon="3.78737">
        <ele>841.86</ele>
        <time>2014-07-13T09:17:27Z</time>
      </trkpt>
      <trkpt lat="45.55014" lon="3.78733">
        <ele>841.81</ele>
        <time>2014-07-13T09:17:30Z</time>
      </trkpt>
      <trkpt lat="45.55015" lon="3.78725">
        <ele>841.7</ele>
        <time>2014-07-13T09:17:36Z</time>
      </trkpt>
      <trkpt lat="45.55017" lon="3.78701">
        <ele>840.44</ele>
        <time>2014-07-13T09:17:58Z</time>
      </trkpt>
      <trkpt lat="45.55017" lon="3.78682">
        <ele>838.93</ele>
        <time>2014-07-13T09:18:14Z</time>
      </trkpt>
      <trkpt lat="45.55017" lon="3.78664">
        <ele>837.36</ele>
        <time>2014-07-13T09:18:25Z</time>
      </trkpt>
      <trkpt lat="45.5502" lon="3.78647">
        <ele>837.12</ele>
        <time>2014-07-13T09:18:37Z</time>
      </trkpt>
      <trkpt lat="45.5502" lon="3.78632">
        <ele>836.06</ele>
        <time>2014-07-13T09:18:50Z</time>
      </trkpt>
      <trkpt lat="45.55019" lon="3.78632">
        <ele>836.03</ele>
        <time>2014-07-13T09:18:51Z</time>
      </trkpt>
      <trkpt lat="45.55013" lon="3.78616">
        <ele>834.91</ele>
        <time>2014-07-13T09:19:08Z</time>
      </trkpt>
      <trkpt lat="45.55012" lon="3.78613">
        <ele>834.73</ele>
        <time>2014-07-13T09:19:10Z</time>
      </trkpt>
      <trkpt lat="45.55007" lon="3.786">
        <ele>832.09</ele>
        <time>2014-07-13T09:19:27Z</time>
      </trkpt>
      <trkpt lat="45.54993" lon="3.78589">
        <ele>829.64</ele>
        <time>2014-07-13T09:19:49Z</time>
      </trkpt>
      <trkpt lat="45.54984" lon="3.78594">
        <ele>829.36</ele>
        <time>2014-07-13T09:20:10Z</time>
      </trkpt>
      <trkpt lat="45.54983" lon="3.78599">
        <ele>829.52</ele>
        <time>2014-07-13T09:20:31Z</time>
      </trkpt>
      <trkpt lat="45.54983" lon="3.78601">
        <ele>829.39</ele>
        <time>2014-07-13T09:20:55Z</time>
      </trkpt>
      <trkpt lat="45.54993" lon="3.78545">
        <ele>824.73</ele>
        <time>2014-07-13T09:23:59Z</time>
      </trkpt>
      <trkpt lat="45.54999" lon="3.7851">
        <ele>821.87</ele>
        <time>2014-07-13T09:24:18Z</time>
      </trkpt>
      <trkpt lat="45.54999" lon="3.78508">
        <ele>821.71</ele>
        <time>2014-07-13T09:24:19Z</time>
      </trkpt>
      <trkpt lat="45.55013" lon="3.78482">
        <ele>819.21</ele>
        <time>2014-07-13T09:24:35Z</time>
      </trkpt>
      <trkpt lat="45.55017" lon="3.78463">
        <ele>817.87</ele>
        <time>2014-07-13T09:24:52Z</time>
      </trkpt>
      <trkpt lat="45.55019" lon="3.78449">
        <ele>815.35</ele>
        <time>2014-07-13T09:25:10Z</time>
      </trkpt>
      <trkpt lat="45.55019" lon="3.78424">
        <ele>814.08</ele>
        <time>2014-07-13T09:25:30Z</time>
      </trkpt>
      <trkpt lat="45.55017" lon="3.78403">
        <ele>811.38</ele>
        <time>2014-07-13T09:25:53Z</time>
      </trkpt>
      <trkpt lat="45.55015" lon="3.78396">
        <ele>809.61</ele>
        <time>2014-07-13T09:26:01Z</time>
      </trkpt>
      <trkpt lat="45.55007" lon="3.78387">
        <ele>806.91</ele>
        <time>2014-07-13T09:26:18Z</time>
      </trkpt>
      <trkpt lat="45.55005" lon="3.78371">
        <ele>805</ele>
        <time>2014-07-13T09:26:34Z</time>
      </trkpt>
      <trkpt lat="45.54912" lon="3.78196">
        <ele>759.12</ele>
        <time>2014-07-13T09:35:57Z</time>
      </trkpt>
      <trkpt lat="45.54903" lon="3.78193">
        <ele>758.28</ele>
        <time>2014-07-13T09:36:05Z</time>
      </trkpt>
      <trkpt lat="45.54899" lon="3.78191">
        <ele>757.75</ele>
        <time>2014-07-13T09:36:09Z</time>
      </trkpt>
      <trkpt lat="45.54892" lon="3.78187">
        <ele>756.25</ele>
        <time>2014-07-13T09:36:31Z</time>
      </trkpt>
      <trkpt lat="45.5488" lon="3.7818">
        <ele>755.37</ele>
        <time>2014-07-13T09:36:51Z</time>
      </trkpt>
      <trkpt lat="45.54872" lon="3.78172">
        <ele>754.99</ele>
        <time>2014-07-13T09:37:01Z</time>
      </trkpt>
      <trkpt lat="45.54866" lon="3.78157">
        <ele>752.67</ele>
        <time>2014-07-13T09:37:19Z</time>
      </trkpt>
      <trkpt lat="45.54856" lon="3.78141">
        <ele>750.69</ele>
        <time>2014-07-13T09:37:37Z</time>
      </trkpt>
      <trkpt lat="45.54848" lon="3.78139">
        <ele>749.31</ele>
        <time>2014-07-13T09:37:52Z</time>
      </trkpt>
      <trkpt lat="45.5484" lon="3.78149">
        <ele>749.31</ele>
        <time>2014-07-13T09:38:06Z</time>
      </trkpt>
      <trkpt lat="45.54839" lon="3.78152">
        <ele>749.45</ele>
        <time>2014-07-13T09:38:08Z</time>
      </trkpt>
      <trkpt lat="45.5483" lon="3.78173">
        <ele>749.63</ele>
        <time>2014-07-13T09:38:27Z</time>
      </trkpt>
      <trkpt lat="45.54828" lon="3.78191">
        <ele>750.53</ele>
        <time>2014-07-13T09:38:42Z</time>
      </trkpt>
      <trkpt lat="45.54826" lon="3.78211">
        <ele>751.59</ele>
        <time>2014-07-13T09:38:57Z</time>
      </trkpt>
      <trkpt lat="45.54825" lon="3.78221">
        <ele>751.94</ele>
        <time>2014-07-13T09:39:05Z</time>
      </trkpt>
      <trkpt lat="45.54822" lon="3.78234">
        <ele>752.66</ele>
        <time>2014-07-13T09:39:20Z</time>
      </trkpt>
      <trkpt lat="45.54822" lon="3.78251">
        <ele>753.04</ele>
        <time>2014-07-13T09:39:35Z</time>
      </trkpt>
      <trkpt lat="45.54822" lon="3.78266">
        <ele>753.19</ele>
        <time>2014-07-13T09:39:52Z</time>
      </trkpt>
      <trkpt lat="45.54819" lon="3.78284">
        <ele>753.44</ele>
        <time>2014-07-13T09:40:07Z</time>
      </trkpt>
      <trkpt lat="45.54819" lon="3.78293">
        <ele>753.56</ele>
        <time>2014-07-13T09:40:14Z</time>
      </trkpt>
      <trkpt lat="45.54817" lon="3.78301">
        <ele>753.67</ele>
        <time>2014-07-13T09:40:20Z</time>
      </trkpt>
      <trkpt lat="45.54815" lon="3.78314">
        <ele>754.28</ele>
        <time>2014-07-13T09:40:30Z</time>
      </trkpt>
      <trkpt lat="45.54812" lon="3.78338">
        <ele>755.71</ele>
        <time>2014-07-13T09:40:49Z</time>
      </trkpt>
      <trkpt lat="45.54809" lon="3.78352">
        <ele>757.29</ele>
        <time>2014-07-13T09:41:02Z</time>
      </trkpt>
      <trkpt lat="45.54804" lon="3.78369">
        <ele>757.82</ele>
        <time>2014-07-13T09:41:13Z</time>
      </trkpt>
      <trkpt lat="45.54798" lon="3.7839">
        <ele>758.72</ele>
        <time>2014-07-13T09:41:29Z</time>
      </trkpt>
      <trkpt lat="45.54793" lon="3.78398">
        <ele>759.97</ele>
        <time>2014-07-13T09:41:37Z</time>
      </trkpt>
      <trkpt lat="45.54789" lon="3.78404">
        <ele>760.2</ele>
        <time>2014-07-13T09:41:43Z</time>
      </trkpt>
      <trkpt lat="45.54783" lon="3.78416">
        <ele>761.2</ele>
        <time>2014-07-13T09:41:57Z</time>
      </trkpt>
      <trkpt lat="45.54778" lon="3.78424">
        <ele>763.04</ele>
        <time>2014-07-13T09:42:07Z</time>
      </trkpt>
      <trkpt lat="45.54774" lon="3.78425">
        <ele>764.87</ele>
        <time>2014-07-13T09:42:20Z</time>
      </trkpt>
      <trkpt lat="45.54774" lon="3.78429">
        <ele>764.69</ele>
        <time>2014-07-13T09:42:44Z</time>
      </trkpt>
      <trkpt lat="45.54772" lon="3.78428">
        <ele>764.44</ele>
        <time>2014-07-13T09:42:54Z</time>
      </trkpt>
      <trkpt lat="45.54745" lon="3.78477">
        <ele>766.59</ele>
        <time>2014-07-13T09:43:38Z</time>
      </trkpt>
      <trkpt lat="45.54736" lon="3.78502">
        <ele>767.63</ele>
        <time>2014-07-13T09:44:01Z</time>
      </trkpt>
      <trkpt lat="45.54733" lon="3.78517">
        <ele>768.28</ele>
        <time>2014-07-13T09:44:19Z</time>
      </trkpt>
      <trkpt lat="45.54733" lon="3.78523">
        <ele>768.71</ele>
        <time>2014-07-13T09:44:40Z</time>
      </trkpt>
      <trkpt lat="45.54731" lon="3.78533">
        <ele>768.84</ele>
        <time>2014-07-13T09:44:57Z</time>
      </trkpt>
      <trkpt lat="45.5473" lon="3.7854">
        <ele>768.96</ele>
        <time>2014-07-13T09:45:05Z</time>
      </trkpt>
      <trkpt lat="45.54726" lon="3.78562">
        <ele>768.84</ele>
        <time>2014-07-13T09:45:19Z</time>
      </trkpt>
      <trkpt lat="45.54727" lon="3.7856">
        <ele>768.59</ele>
        <time>2014-07-13T09:45:37Z</time>
      </trkpt>
      <trkpt lat="45.54725" lon="3.78558">
        <ele>768.72</ele>
        <time>2014-07-13T09:45:49Z</time>
      </trkpt>
      <trkpt lat="45.54719" lon="3.78602">
        <ele>769.24</ele>
        <time>2014-07-13T09:46:34Z</time>
      </trkpt>
      <trkpt lat="45.54714" lon="3.78624">
        <ele>768.47</ele>
        <time>2014-07-13T09:46:52Z</time>
      </trkpt>
      <trkpt lat="45.54712" lon="3.78634">
        <ele>768.31</ele>
        <time>2014-07-13T09:47:10Z</time>
      </trkpt>
      <trkpt lat="45.54711" lon="3.78637">
        <ele>768.02</ele>
        <time>2014-07-13T09:47:17Z</time>
      </trkpt>
      <trkpt lat="45.54707" lon="3.78656">
        <ele>767.75</ele>
        <time>2014-07-13T09:47:37Z</time>
      </trkpt>
      <trkpt lat="45.54697" lon="3.78689">
        <ele>765.37</ele>
        <time>2014-07-13T09:48:00Z</time>
      </trkpt>
      <trkpt lat="45.54695" lon="3.78701">
        <ele>763.37</ele>
        <time>2014-07-13T09:48:11Z</time>
      </trkpt>
      <trkpt lat="45.54695" lon="3.78702">
        <ele>763.22</ele>
        <time>2014-07-13T09:48:13Z</time>
      </trkpt>
      <trkpt lat="45.54691" lon="3.78716">
        <ele>762.31</ele>
        <time>2014-07-13T09:48:23Z</time>
      </trkpt>
      <trkpt lat="45.5469" lon="3.78723">
        <ele>761.88</ele>
        <time>2014-07-13T09:48:27Z</time>
      </trkpt>
      <trkpt lat="45.5469" lon="3.78728">
        <ele>761.68</ele>
        <time>2014-07-13T09:48:30Z</time>
      </trkpt>
      <trkpt lat="45.54687" lon="3.78745">
        <ele>761.8</ele>
        <time>2014-07-13T09:48:43Z</time>
      </trkpt>
      <trkpt lat="45.54682" lon="3.78761">
        <ele>760.73</ele>
        <time>2014-07-13T09:48:55Z</time>
      </trkpt>
      <trkpt lat="45.54675" lon="3.78788">
        <ele>758.38</ele>
        <time>2014-07-13T09:49:13Z</time>
      </trkpt>
      <trkpt lat="45.5467" lon="3.788">
        <ele>757.45</ele>
        <time>2014-07-13T09:49:28Z</time>
      </trkpt>
      <trkpt lat="45.54667" lon="3.7881">
        <ele>756.99</ele>
        <time>2014-07-13T09:49:42Z</time>
      </trkpt>
      <trkpt lat="45.54666" lon="3.78813">
        <ele>756.8</ele>
        <time>2014-07-13T09:49:47Z</time>
      </trkpt>
      <trkpt lat="45.54661" lon="3.78826">
        <ele>756.33</ele>
        <time>2014-07-13T09:49:57Z</time>
      </trkpt>
      <trkpt lat="45.54658" lon="3.78833">
        <ele>756.01</ele>
        <time>2014-07-13T09:50:02Z</time>
      </trkpt>
      <trkpt lat="45.54657" lon="3.78835">
        <ele>755.87</ele>
        <time>2014-07-13T09:50:04Z</time>
      </trkpt>
      <trkpt lat="45.54655" lon="3.78849">
        <ele>755.34</ele>
        <time>2014-07-13T09:50:19Z</time>
      </trkpt>
      <trkpt lat="45.54648" lon="3.78866">
        <ele>754.93</ele>
        <time>2014-07-13T09:50:33Z</time>
      </trkpt>
      <trkpt lat="45.54644" lon="3.78882">
        <ele>754.45</ele>
        <time>2014-07-13T09:50:44Z</time>
      </trkpt>
      <trkpt lat="45.5464" lon="3.78894">
        <ele>753.95</ele>
        <time>2014-07-13T09:50:55Z</time>
      </trkpt>
      <trkpt lat="45.54634" lon="3.78908">
        <ele>753.6</ele>
        <time>2014-07-13T09:51:09Z</time>
      </trkpt>
      <trkpt lat="45.54632" lon="3.78919">
        <ele>753.59</ele>
        <time>2014-07-13T09:51:17Z</time>
      </trkpt>
      <trkpt lat="45.54632" lon="3.78936">
        <ele>753.26</ele>
        <time>2014-07-13T09:51:24Z</time>
      </trkpt>
      <trkpt lat="45.54628" lon="3.78948">
        <ele>753.22</ele>
        <time>2014-07-13T09:51:32Z</time>
      </trkpt>
      <trkpt lat="45.54624" lon="3.78953">
        <ele>752.92</ele>
        <time>2014-07-13T09:51:37Z</time>
      </trkpt>
      <trkpt lat="45.5462" lon="3.78959">
        <ele>753.02</ele>
        <time>2014-07-13T09:51:45Z</time>
      </trkpt>
      <trkpt lat="45.54615" lon="3.78975">
        <ele>752.57</ele>
        <time>2014-07-13T09:51:53Z</time>
      </trkpt>
      <trkpt lat="45.54609" lon="3.78977">
        <ele>752.5</ele>
        <time>2014-07-13T09:51:58Z</time>
      </trkpt>
      <trkpt lat="45.54607" lon="3.78977">
        <ele>752.47</ele>
        <time>2014-07-13T09:52:00Z</time>
      </trkpt>
      <trkpt lat="45.54596" lon="3.78986">
        <ele>752.33</ele>
        <time>2014-07-13T09:52:09Z</time>
      </trkpt>
      <trkpt lat="45.54595" lon="3.78987">
        <ele>752.33</ele>
        <time>2014-07-13T09:52:10Z</time>
      </trkpt>
      <trkpt lat="45.54589" lon="3.78996">
        <ele>752.19</ele>
        <time>2014-07-13T09:52:16Z</time>
      </trkpt>
      <trkpt lat="45.54582" lon="3.79005">
        <ele>751.94</ele>
        <time>2014-07-13T09:52:24Z</time>
      </trkpt>
      <trkpt lat="45.54576" lon="3.7901">
        <ele>751.75</ele>
        <time>2014-07-13T09:52:30Z</time>
      </trkpt>
      <trkpt lat="45.5457" lon="3.79011">
        <ele>751.41</ele>
        <time>2014-07-13T09:52:35Z</time>
      </trkpt>
      <trkpt lat="45.54562" lon="3.79017">
        <ele>750.88</ele>
        <time>2014-07-13T09:52:43Z</time>
      </trkpt>
      <trkpt lat="45.54551" lon="3.7903">
        <ele>749.59</ele>
        <time>2014-07-13T09:53:02Z</time>
      </trkpt>
      <trkpt lat="45.54536" lon="3.79038">
        <ele>748.01</ele>
        <time>2014-07-13T09:53:15Z</time>
      </trkpt>
      <trkpt lat="45.54531" lon="3.79042">
        <ele>747.46</ele>
        <time>2014-07-13T09:53:20Z</time>
      </trkpt>
      <trkpt lat="45.54526" lon="3.79047">
        <ele>746.97</ele>
        <time>2014-07-13T09:53:25Z</time>
      </trkpt>
      <trkpt lat="45.5452" lon="3.79052">
        <ele>746.12</ele>
        <time>2014-07-13T09:53:35Z</time>
      </trkpt>
      <trkpt lat="45.54514" lon="3.79054">
        <ele>745.97</ele>
        <time>2014-07-13T09:53:41Z</time>
      </trkpt>
      <trkpt lat="45.5451" lon="3.79066">
        <ele>745.46</ele>
        <time>2014-07-13T09:53:53Z</time>
      </trkpt>
      <trkpt lat="45.54509" lon="3.79077">
        <ele>744.9</ele>
        <time>2014-07-13T09:54:06Z</time>
      </trkpt>
      <trkpt lat="45.54508" lon="3.79078">
        <ele>744.86</ele>
        <time>2014-07-13T09:54:07Z</time>
      </trkpt>
      <trkpt lat="45.54505" lon="3.79083">
        <ele>744.95</ele>
        <time>2014-07-13T09:54:11Z</time>
      </trkpt>
      <trkpt lat="45.54504" lon="3.79088">
        <ele>744.87</ele>
        <time>2014-07-13T09:54:14Z</time>
      </trkpt>
      <trkpt lat="45.54499" lon="3.79095">
        <ele>744.58</ele>
        <time>2014-07-13T09:54:21Z</time>
      </trkpt>
      <trkpt lat="45.54494" lon="3.79103">
        <ele>744.55</ele>
        <time>2014-07-13T09:54:26Z</time>
      </trkpt>
      <trkpt lat="45.54492" lon="3.7911">
        <ele>744.59</ele>
        <time>2014-07-13T09:54:30Z</time>
      </trkpt>
      <trkpt lat="45.54487" lon="3.79126">
        <ele>744.64</ele>
        <time>2014-07-13T09:54:39Z</time>
      </trkpt>
      <trkpt lat="45.54485" lon="3.79128">
        <ele>744.68</ele>
        <time>2014-07-13T09:54:42Z</time>
      </trkpt>
      <trkpt lat="45.54473" lon="3.7913">
        <ele>743.87</ele>
        <time>2014-07-13T09:54:51Z</time>
      </trkpt>
      <trkpt lat="45.54467" lon="3.79129">
        <ele>743.64</ele>
        <time>2014-07-13T09:54:56Z</time>
      </trkpt>
      <trkpt lat="45.54462" lon="3.79131">
        <ele>743.43</ele>
        <time>2014-07-13T09:55:01Z</time>
      </trkpt>
      <trkpt lat="45.54457" lon="3.79131">
        <ele>743.32</ele>
        <time>2014-07-13T09:55:05Z</time>
      </trkpt>
      <trkpt lat="45.54453" lon="3.7913">
        <ele>743.32</ele>
        <time>2014-07-13T09:55:08Z</time>
      </trkpt>
      <trkpt lat="45.5445" lon="3.79128">
        <ele>743.23</ele>
        <time>2014-07-13T09:55:11Z</time>
      </trkpt>
      <trkpt lat="45.54443" lon="3.79127">
        <ele>743.24</ele>
        <time>2014-07-13T09:55:16Z</time>
      </trkpt>
      <trkpt lat="45.54441" lon="3.79127">
        <ele>743.19</ele>
        <time>2014-07-13T09:55:18Z</time>
      </trkpt>
      <trkpt lat="45.54439" lon="3.79127">
        <ele>743.22</ele>
        <time>2014-07-13T09:55:20Z</time>
      </trkpt>
      <trkpt lat="45.54436" lon="3.79128">
        <ele>743.31</ele>
        <time>2014-07-13T09:55:24Z</time>
      </trkpt>
      <trkpt lat="45.54431" lon="3.79126">
        <ele>743.28</ele>
        <time>2014-07-13T09:55:32Z</time>
      </trkpt>
      <trkpt lat="45.54417" lon="3.79127">
        <ele>743.05</ele>
        <time>2014-07-13T09:55:49Z</time>
      </trkpt>
      <trkpt lat="45.54412" lon="3.79127">
        <ele>742.79</ele>
        <time>2014-07-13T09:55:56Z</time>
      </trkpt>
      <trkpt lat="45.54406" lon="3.79126">
        <ele>742.62</ele>
        <time>2014-07-13T09:56:02Z</time>
      </trkpt>
      <trkpt lat="45.5438" lon="3.79125">
        <ele>740.58</ele>
        <time>2014-07-13T09:56:25Z</time>
      </trkpt>
      <trkpt lat="45.54371" lon="3.79132">
        <ele>739.86</ele>
        <time>2014-07-13T09:56:37Z</time>
      </trkpt>
      <trkpt lat="45.54364" lon="3.79141">
        <ele>741.14</ele>
        <time>2014-07-13T09:56:50Z</time>
      </trkpt>
      <trkpt lat="45.54363" lon="3.79144">
        <ele>741.24</ele>
        <time>2014-07-13T09:56:54Z</time>
      </trkpt>
      <trkpt lat="45.54359" lon="3.79166">
        <ele>744.42</ele>
        <time>2014-07-13T09:57:19Z</time>
      </trkpt>
      <trkpt lat="45.54354" lon="3.79192">
        <ele>746.4</ele>
        <time>2014-07-13T09:57:38Z</time>
      </trkpt>
      <trkpt lat="45.54351" lon="3.79196">
        <ele>746.65</ele>
        <time>2014-07-13T09:57:40Z</time>
      </trkpt>
      <trkpt lat="45.54348" lon="3.79211">
        <ele>748.34</ele>
        <time>2014-07-13T09:57:53Z</time>
      </trkpt>
      <trkpt lat="45.54348" lon="3.79221">
        <ele>749.11</ele>
        <time>2014-07-13T09:57:59Z</time>
      </trkpt>
      <trkpt lat="45.54346" lon="3.79237">
        <ele>749.79</ele>
        <time>2014-07-13T09:58:12Z</time>
      </trkpt>
      <trkpt lat="45.54347" lon="3.79242">
        <ele>750.01</ele>
        <time>2014-07-13T09:58:16Z</time>
      </trkpt>
      <trkpt lat="45.54348" lon="3.79246">
        <ele>750.4</ele>
        <time>2014-07-13T09:58:20Z</time>
      </trkpt>
      <trkpt lat="45.54349" lon="3.79261">
        <ele>751.27</ele>
        <time>2014-07-13T09:58:34Z</time>
      </trkpt>
      <trkpt lat="45.5435" lon="3.79276">
        <ele>752.63</ele>
        <time>2014-07-13T09:58:45Z</time>
      </trkpt>
      <trkpt lat="45.54346" lon="3.79286">
        <ele>752.38</ele>
        <time>2014-07-13T09:58:51Z</time>
      </trkpt>
      <trkpt lat="45.54341" lon="3.79294">
        <ele>752.1</ele>
        <time>2014-07-13T09:58:56Z</time>
      </trkpt>
      <trkpt lat="45.54332" lon="3.7931">
        <ele>751.52</ele>
        <time>2014-07-13T09:59:07Z</time>
      </trkpt>
      <trkpt lat="45.5433" lon="3.79313">
        <ele>751.42</ele>
        <time>2014-07-13T09:59:10Z</time>
      </trkpt>
      <trkpt lat="45.54328" lon="3.79315">
        <ele>751.39</ele>
        <time>2014-07-13T09:59:12Z</time>
      </trkpt>
      <trkpt lat="45.54326" lon="3.79319">
        <ele>751.39</ele>
        <time>2014-07-13T09:59:14Z</time>
      </trkpt>
      <trkpt lat="45.54319" lon="3.79327">
        <ele>750.92</ele>
        <time>2014-07-13T09:59:25Z</time>
      </trkpt>
      <trkpt lat="45.54315" lon="3.79335">
        <ele>750.74</ele>
        <time>2014-07-13T09:59:33Z</time>
      </trkpt>
      <trkpt lat="45.54307" lon="3.79353">
        <ele>749.81</ele>
        <time>2014-07-13T09:59:45Z</time>
      </trkpt>
      <trkpt lat="45.54297" lon="3.79363">
        <ele>749.16</ele>
        <time>2014-07-13T09:59:59Z</time>
      </trkpt>
      <trkpt lat="45.54295" lon="3.79367">
        <ele>748.76</ele>
        <time>2014-07-13T10:00:04Z</time>
      </trkpt>
      <trkpt lat="45.54293" lon="3.79373">
        <ele>748.39</ele>
        <time>2014-07-13T10:00:09Z</time>
      </trkpt>
      <trkpt lat="45.5429" lon="3.7938">
        <ele>748.28</ele>
        <time>2014-07-13T10:00:14Z</time>
      </trkpt>
      <trkpt lat="45.54284" lon="3.79399">
        <ele>747.64</ele>
        <time>2014-07-13T10:00:27Z</time>
      </trkpt>
      <trkpt lat="45.54279" lon="3.79404">
        <ele>746.63</ele>
        <time>2014-07-13T10:00:36Z</time>
      </trkpt>
      <trkpt lat="45.54268" lon="3.79419">
        <ele>745.13</ele>
        <time>2014-07-13T10:00:49Z</time>
      </trkpt>
      <trkpt lat="45.54265" lon="3.79424">
        <ele>744.43</ele>
        <time>2014-07-13T10:00:53Z</time>
      </trkpt>
      <trkpt lat="45.54253" lon="3.79439">
        <ele>742.54</ele>
        <time>2014-07-13T10:01:10Z</time>
      </trkpt>
      <trkpt lat="45.54252" lon="3.7944">
        <ele>742.48</ele>
        <time>2014-07-13T10:01:11Z</time>
      </trkpt>
      <trkpt lat="45.54252" lon="3.79447">
        <ele>742.22</ele>
        <time>2014-07-13T10:01:17Z</time>
      </trkpt>
      <trkpt lat="45.54252" lon="3.79453">
        <ele>742</ele>
        <time>2014-07-13T10:01:23Z</time>
      </trkpt>
      <trkpt lat="45.54247" lon="3.79466">
        <ele>742.22</ele>
        <time>2014-07-13T10:01:50Z</time>
      </trkpt>
      <trkpt lat="45.54241" lon="3.79473">
        <ele>741.81</ele>
        <time>2014-07-13T10:02:16Z</time>
      </trkpt>
      <trkpt lat="45.54238" lon="3.79489">
        <ele>741.12</ele>
        <time>2014-07-13T10:02:34Z</time>
      </trkpt>
      <trkpt lat="45.54236" lon="3.79501">
        <ele>740.03</ele>
        <time>2014-07-13T10:02:47Z</time>
      </trkpt>
      <trkpt lat="45.54235" lon="3.79503">
        <ele>740.05</ele>
        <time>2014-07-13T10:02:49Z</time>
      </trkpt>
      <trkpt lat="45.54235" lon="3.79506">
        <ele>740.09</ele>
        <time>2014-07-13T10:02:51Z</time>
      </trkpt>
      <trkpt lat="45.54234" lon="3.79513">
        <ele>740.32</ele>
        <time>2014-07-13T10:02:55Z</time>
      </trkpt>
      <trkpt lat="45.54232" lon="3.79521">
        <ele>740.64</ele>
        <time>2014-07-13T10:03:00Z</time>
      </trkpt>
      <trkpt lat="45.54224" lon="3.79534">
        <ele>739.88</ele>
        <time>2014-07-13T10:03:14Z</time>
      </trkpt>
      <trkpt lat="45.54216" lon="3.79549">
        <ele>739.21</ele>
        <time>2014-07-13T10:03:26Z</time>
      </trkpt>
      <trkpt lat="45.54211" lon="3.79553">
        <ele>738.69</ele>
        <time>2014-07-13T10:03:31Z</time>
      </trkpt>
      <trkpt lat="45.54204" lon="3.79575">
        <ele>738.33</ele>
        <time>2014-07-13T10:03:49Z</time>
      </trkpt>
      <trkpt lat="45.54197" lon="3.7959">
        <ele>738.32</ele>
        <time>2014-07-13T10:04:03Z</time>
      </trkpt>
      <trkpt lat="45.54191" lon="3.79614">
        <ele>738.26</ele>
        <time>2014-07-13T10:04:19Z</time>
      </trkpt>
      <trkpt lat="45.54192" lon="3.79622">
        <ele>738.18</ele>
        <time>2014-07-13T10:04:41Z</time>
      </trkpt>
      <trkpt lat="45.54187" lon="3.79624">
        <ele>738.06</ele>
        <time>2014-07-13T10:04:47Z</time>
      </trkpt>
      <trkpt lat="45.54183" lon="3.79622">
        <ele>738.28</ele>
        <time>2014-07-13T10:05:09Z</time>
      </trkpt>
      <trkpt lat="45.54162" lon="3.79625">
        <ele>738.98</ele>
        <time>2014-07-13T10:05:29Z</time>
      </trkpt>
      <trkpt lat="45.5415" lon="3.7963">
        <ele>739.71</ele>
        <time>2014-07-13T10:05:42Z</time>
      </trkpt>
      <trkpt lat="45.54137" lon="3.79637">
        <ele>740.95</ele>
        <time>2014-07-13T10:05:54Z</time>
      </trkpt>
      <trkpt lat="45.54125" lon="3.79647">
        <ele>741.46</ele>
        <time>2014-07-13T10:06:07Z</time>
      </trkpt>
      <trkpt lat="45.54121" lon="3.79655">
        <ele>743.04</ele>
        <time>2014-07-13T10:06:23Z</time>
      </trkpt>
      <trkpt lat="45.54113" lon="3.79647">
        <ele>742.55</ele>
        <time>2014-07-13T10:06:40Z</time>
      </trkpt>
      <trkpt lat="45.54117" lon="3.79654">
        <ele>742.39</ele>
        <time>2014-07-13T10:06:45Z</time>
      </trkpt>
      <trkpt lat="45.54122" lon="3.79676">
        <ele>744</ele>
        <time>2014-07-13T10:07:02Z</time>
      </trkpt>
      <trkpt lat="45.54126" lon="3.79689">
        <ele>744.61</ele>
        <time>2014-07-13T10:07:14Z</time>
      </trkpt>
      <trkpt lat="45.54125" lon="3.79699">
        <ele>745.19</ele>
        <time>2014-07-13T10:07:21Z</time>
      </trkpt>
      <trkpt lat="45.54122" lon="3.79706">
        <ele>745.89</ele>
        <time>2014-07-13T10:07:25Z</time>
      </trkpt>
      <trkpt lat="45.54119" lon="3.79716">
        <ele>746.58</ele>
        <time>2014-07-13T10:07:32Z</time>
      </trkpt>
      <trkpt lat="45.54116" lon="3.79721">
        <ele>746.74</ele>
        <time>2014-07-13T10:07:36Z</time>
      </trkpt>
      <trkpt lat="45.54117" lon="3.7974">
        <ele>747.33</ele>
        <time>2014-07-13T10:07:48Z</time>
      </trkpt>
      <trkpt lat="45.54118" lon="3.79762">
        <ele>749.04</ele>
        <time>2014-07-13T10:08:08Z</time>
      </trkpt>
      <trkpt lat="45.54123" lon="3.79781">
        <ele>751.4</ele>
        <time>2014-07-13T10:08:34Z</time>
      </trkpt>
      <trkpt lat="45.54119" lon="3.79811">
        <ele>752.55</ele>
        <time>2014-07-13T10:08:57Z</time>
      </trkpt>
      <trkpt lat="45.54118" lon="3.79846">
        <ele>751.43</ele>
        <time>2014-07-13T10:09:19Z</time>
      </trkpt>
      <trkpt lat="45.54117" lon="3.79865">
        <ele>750.59</ele>
        <time>2014-07-13T10:09:32Z</time>
      </trkpt>
      <trkpt lat="45.54116" lon="3.79884">
        <ele>750.28</ele>
        <time>2014-07-13T10:09:46Z</time>
      </trkpt>
      <trkpt lat="45.54115" lon="3.79903">
        <ele>750.07</ele>
        <time>2014-07-13T10:10:01Z</time>
      </trkpt>
      <trkpt lat="45.54117" lon="3.79907">
        <ele>749.95</ele>
        <time>2014-07-13T10:10:20Z</time>
      </trkpt>
      <trkpt lat="45.54114" lon="3.79915">
        <ele>749.87</ele>
        <time>2014-07-13T10:10:49Z</time>
      </trkpt>
      <trkpt lat="45.54118" lon="3.79915">
        <ele>750.12</ele>
        <time>2014-07-13T10:11:05Z</time>
      </trkpt>
      <trkpt lat="45.54144" lon="3.79987">
        <ele>757.55</ele>
        <time>2014-07-13T10:12:35Z</time>
      </trkpt>
      <trkpt lat="45.54142" lon="3.7999">
        <ele>757.76</ele>
        <time>2014-07-13T10:12:38Z</time>
      </trkpt>
      <trkpt lat="45.54138" lon="3.79991">
        <ele>758.34</ele>
        <time>2014-07-13T10:12:41Z</time>
      </trkpt>
      <trkpt lat="45.54131" lon="3.79989">
        <ele>758.83</ele>
        <time>2014-07-13T10:12:46Z</time>
      </trkpt>
      <trkpt lat="45.54126" lon="3.79989">
        <ele>759.08</ele>
        <time>2014-07-13T10:12:51Z</time>
      </trkpt>
      <trkpt lat="45.54124" lon="3.79989">
        <ele>759.3</ele>
        <time>2014-07-13T10:12:53Z</time>
      </trkpt>
      <trkpt lat="45.54121" lon="3.7999">
        <ele>759.75</ele>
        <time>2014-07-13T10:12:56Z</time>
      </trkpt>
      <trkpt lat="45.54117" lon="3.79991">
        <ele>760.78</ele>
        <time>2014-07-13T10:13:06Z</time>
      </trkpt>
      <trkpt lat="45.54116" lon="3.7999">
        <ele>761.91</ele>
        <time>2014-07-13T10:13:16Z</time>
      </trkpt>
      <trkpt lat="45.54113" lon="3.79985">
        <ele>762.22</ele>
        <time>2014-07-13T10:13:28Z</time>
      </trkpt>
      <trkpt lat="45.54104" lon="3.79978">
        <ele>763.28</ele>
        <time>2014-07-13T10:13:45Z</time>
      </trkpt>
      <trkpt lat="45.54094" lon="3.79978">
        <ele>764.14</ele>
        <time>2014-07-13T10:13:57Z</time>
      </trkpt>
      <trkpt lat="45.54085" lon="3.79975">
        <ele>765.42</ele>
        <time>2014-07-13T10:14:10Z</time>
      </trkpt>
      <trkpt lat="45.54078" lon="3.79982">
        <ele>765.87</ele>
        <time>2014-07-13T10:14:30Z</time>
      </trkpt>
      <trkpt lat="45.54072" lon="3.79988">
        <ele>767.02</ele>
        <time>2014-07-13T10:14:41Z</time>
      </trkpt>
      <trkpt lat="45.54065" lon="3.79997">
        <ele>768.03</ele>
        <time>2014-07-13T10:14:52Z</time>
      </trkpt>
      <trkpt lat="45.54056" lon="3.80002">
        <ele>769.32</ele>
        <time>2014-07-13T10:15:05Z</time>
      </trkpt>
      <trkpt lat="45.5405" lon="3.80011">
        <ele>771.22</ele>
        <time>2014-07-13T10:15:18Z</time>
      </trkpt>
      <trkpt lat="45.54045" lon="3.80023">
        <ele>772.71</ele>
        <time>2014-07-13T10:15:33Z</time>
      </trkpt>
      <trkpt lat="45.54046" lon="3.80038">
        <ele>773.85</ele>
        <time>2014-07-13T10:15:49Z</time>
      </trkpt>
      <trkpt lat="45.54043" lon="3.80054">
        <ele>775.23</ele>
        <time>2014-07-13T10:16:08Z</time>
      </trkpt>
      <trkpt lat="45.54041" lon="3.80069">
        <ele>776.56</ele>
        <time>2014-07-13T10:16:25Z</time>
      </trkpt>
      <trkpt lat="45.54045" lon="3.801">
        <ele>779.12</ele>
        <time>2014-07-13T10:16:50Z</time>
      </trkpt>
      <trkpt lat="45.54041" lon="3.80119">
        <ele>780.23</ele>
        <time>2014-07-13T10:17:04Z</time>
      </trkpt>
      <trkpt lat="45.54039" lon="3.80139">
        <ele>781.23</ele>
        <time>2014-07-13T10:17:16Z</time>
      </trkpt>
      <trkpt lat="45.54044" lon="3.80156">
        <ele>780.98</ele>
        <time>2014-07-13T10:17:27Z</time>
      </trkpt>
      <trkpt lat="45.54053" lon="3.80168">
        <ele>780.45</ele>
        <time>2014-07-13T10:17:41Z</time>
      </trkpt>
      <trkpt lat="45.54054" lon="3.80168">
        <ele>780.43</ele>
        <time>2014-07-13T10:17:42Z</time>
      </trkpt>
      <trkpt lat="45.54056" lon="3.80169">
        <ele>780.4</ele>
        <time>2014-07-13T10:17:44Z</time>
      </trkpt>
      <trkpt lat="45.54062" lon="3.80171">
        <ele>780.53</ele>
        <time>2014-07-13T10:17:51Z</time>
      </trkpt>
      <trkpt lat="45.54066" lon="3.80173">
        <ele>780.48</ele>
        <time>2014-07-13T10:17:55Z</time>
      </trkpt>
      <trkpt lat="45.54076" lon="3.80189">
        <ele>780.63</ele>
        <time>2014-07-13T10:18:08Z</time>
      </trkpt>
      <trkpt lat="45.54082" lon="3.80211">
        <ele>780.99</ele>
        <time>2014-07-13T10:18:24Z</time>
      </trkpt>
      <trkpt lat="45.54088" lon="3.80224">
        <ele>781.11</ele>
        <time>2014-07-13T10:18:35Z</time>
      </trkpt>
      <trkpt lat="45.54094" lon="3.8023">
        <ele>781.32</ele>
        <time>2014-07-13T10:18:53Z</time>
      </trkpt>
      <trkpt lat="45.54102" lon="3.80246">
        <ele>781.49</ele>
        <time>2014-07-13T10:19:11Z</time>
      </trkpt>
      <trkpt lat="45.54114" lon="3.80259">
        <ele>782.25</ele>
        <time>2014-07-13T10:19:28Z</time>
      </trkpt>
      <trkpt lat="45.54122" lon="3.80264">
        <ele>783.07</ele>
        <time>2014-07-13T10:19:36Z</time>
      </trkpt>
      <trkpt lat="45.54131" lon="3.80267">
        <ele>783.66</ele>
        <time>2014-07-13T10:19:50Z</time>
      </trkpt>
      <trkpt lat="45.54134" lon="3.80267">
        <ele>783.73</ele>
        <time>2014-07-13T10:19:57Z</time>
      </trkpt>
      <trkpt lat="45.54137" lon="3.80279">
        <ele>784.15</ele>
        <time>2014-07-13T10:20:12Z</time>
      </trkpt>
      <trkpt lat="45.54138" lon="3.80282">
        <ele>784.51</ele>
        <time>2014-07-13T10:20:17Z</time>
      </trkpt>
      <trkpt lat="45.54142" lon="3.80282">
        <ele>784.99</ele>
        <time>2014-07-13T10:20:34Z</time>
      </trkpt>
      <trkpt lat="45.54139" lon="3.80272">
        <ele>784.34</ele>
        <time>2014-07-13T10:20:48Z</time>
      </trkpt>
      <trkpt lat="45.54144" lon="3.80268">
        <ele>784.58</ele>
        <time>2014-07-13T10:20:58Z</time>
      </trkpt>
      <trkpt lat="45.54157" lon="3.80275">
        <ele>786.19</ele>
        <time>2014-07-13T10:21:11Z</time>
      </trkpt>
      <trkpt lat="45.54164" lon="3.80276">
        <ele>787.19</ele>
        <time>2014-07-13T10:21:21Z</time>
      </trkpt>
      <trkpt lat="45.54169" lon="3.8028">
        <ele>787.48</ele>
        <time>2014-07-13T10:21:27Z</time>
      </trkpt>
      <trkpt lat="45.54169" lon="3.80282">
        <ele>787.59</ele>
        <time>2014-07-13T10:21:29Z</time>
      </trkpt>
      <trkpt lat="45.54175" lon="3.80292">
        <ele>788.82</ele>
        <time>2014-07-13T10:21:39Z</time>
      </trkpt>
      <trkpt lat="45.54177" lon="3.80299">
        <ele>789.41</ele>
        <time>2014-07-13T10:21:44Z</time>
      </trkpt>
      <trkpt lat="45.54179" lon="3.80305">
        <ele>790.18</ele>
        <time>2014-07-13T10:21:49Z</time>
      </trkpt>
      <trkpt lat="45.54179" lon="3.8031">
        <ele>790.68</ele>
        <time>2014-07-13T10:21:53Z</time>
      </trkpt>
      <trkpt lat="45.54181" lon="3.80314">
        <ele>791.35</ele>
        <time>2014-07-13T10:21:57Z</time>
      </trkpt>
      <trkpt lat="45.54185" lon="3.80317">
        <ele>792.47</ele>
        <time>2014-07-13T10:22:05Z</time>
      </trkpt>
      <trkpt lat="45.54197" lon="3.80317">
        <ele>794.19</ele>
        <time>2014-07-13T10:22:18Z</time>
      </trkpt>
      <trkpt lat="45.54208" lon="3.80317">
        <ele>795.97</ele>
        <time>2014-07-13T10:22:30Z</time>
      </trkpt>
      <trkpt lat="45.54213" lon="3.80315">
        <ele>797.5</ele>
        <time>2014-07-13T10:22:47Z</time>
      </trkpt>
      <trkpt lat="45.54215" lon="3.80314">
        <ele>797.68</ele>
        <time>2014-07-13T10:22:49Z</time>
      </trkpt>
      <trkpt lat="45.54217" lon="3.80316">
        <ele>798</ele>
        <time>2014-07-13T10:22:51Z</time>
      </trkpt>
      <trkpt lat="45.54227" lon="3.80311">
        <ele>799.26</ele>
        <time>2014-07-13T10:23:02Z</time>
      </trkpt>
      <trkpt lat="45.54233" lon="3.80309">
        <ele>800.75</ele>
        <time>2014-07-13T10:23:13Z</time>
      </trkpt>
      <trkpt lat="45.54239" lon="3.80316">
        <ele>802.5</ele>
        <time>2014-07-13T10:23:25Z</time>
      </trkpt>
      <trkpt lat="45.54241" lon="3.80326">
        <ele>803.55</ele>
        <time>2014-07-13T10:23:34Z</time>
      </trkpt>
      <trkpt lat="45.54244" lon="3.80351">
        <ele>805.07</ele>
        <time>2014-07-13T10:23:50Z</time>
      </trkpt>
      <trkpt lat="45.54248" lon="3.80372">
        <ele>806.32</ele>
        <time>2014-07-13T10:24:04Z</time>
      </trkpt>
      <trkpt lat="45.54257" lon="3.80385">
        <ele>809.18</ele>
        <time>2014-07-13T10:24:22Z</time>
      </trkpt>
      <trkpt lat="45.54263" lon="3.80378">
        <ele>811.01</ele>
        <time>2014-07-13T10:24:33Z</time>
      </trkpt>
      <trkpt lat="45.54268" lon="3.80369">
        <ele>811.95</ele>
        <time>2014-07-13T10:24:46Z</time>
      </trkpt>
      <trkpt lat="45.54273" lon="3.80363">
        <ele>812.5</ele>
        <time>2014-07-13T10:24:56Z</time>
      </trkpt>
      <trkpt lat="45.54275" lon="3.80357">
        <ele>812.74</ele>
        <time>2014-07-13T10:25:01Z</time>
      </trkpt>
      <trkpt lat="45.54278" lon="3.80349">
        <ele>812.87</ele>
        <time>2014-07-13T10:25:06Z</time>
      </trkpt>
      <trkpt lat="45.54283" lon="3.80324">
        <ele>813.45</ele>
        <time>2014-07-13T10:25:22Z</time>
      </trkpt>
      <trkpt lat="45.54286" lon="3.80291">
        <ele>813.76</ele>
        <time>2014-07-13T10:25:43Z</time>
      </trkpt>
      <trkpt lat="45.54287" lon="3.80283">
        <ele>813.86</ele>
        <time>2014-07-13T10:25:57Z</time>
      </trkpt>
      <trkpt lat="45.54287" lon="3.80282">
        <ele>812.55</ele>
        <time>2014-07-13T10:26:04Z</time>
      </trkpt>
    </trkseg>
  </trk>
</gpx>